sensor_id;sensor_type;location;lat;lon;timestamp;temperature;humidity
18884;DHT22;9574;47.282;9.640;2023-04-06T00:00:34;4.90;99.90
18884;DHT22;9574;47.282;9.640;2023-04-06T00:03:05;5.00;99.90
18884;DHT22;9574;47.282;9.640;2023-04-06T00:05:33;5.40;99.90
18884;DHT22;9574;47.282;9.640;2023-04-06T00:08:01;5.20;99.90
18884;DHT22;9574;47.282;9.640;2023-04-06T00:10:29;5.10;99.90
18884;DHT22;9574;47.282;9.640;2023-04-06T00:12:59;5.00;99.90
18884;DHT22;9574;47.282;9.640;2023-04-06T00:15:29;5.20;99.90
18884;DHT22;9574;47.282;9.640;2023-04-06T00:17:58;5.30;99.90
18884;DHT22;9574;47.282;9.640;2023-04-06T00:20:26;4.90;99.90
18884;DHT22;9574;47.282;9.640;2023-04-06T00:22:57;4.80;99.90
18884;DHT22;9574;47.282;9.640;2023-04-06T00:25:27;4.80;99.90
18884;DHT22;9574;47.282;9.640;2023-04-06T00:27:55;4.60;99.90
18884;DHT22;9574;47.282;9.640;2023-04-06T00:30:22;4.30;99.90
18884;DHT22;9574;47.282;9.640;2023-04-06T00:33:04;4.10;99.90
18884;DHT22;9574;47.282;9.640;2023-04-06T00:35:32;4.10;99.90
18884;DHT22;9574;47.282;9.640;2023-04-06T00:38:05;4.00;99.90
18884;DHT22;9574;47.282;9.640;2023-04-06T00:40:32;3.90;99.90
18884;DHT22;9574;47.282;9.640;2023-04-06T00:43:01;4.00;99.90
18884;DHT22;9574;47.282;9.640;2023-04-06T00:45:32;3.90;99.90
18884;DHT22;9574;47.282;9.640;2023-04-06T00:48:01;4.00;99.90
18884;DHT22;9574;47.282;9.640;2023-04-06T00:50:29;4.40;99.90
18884;DHT22;9574;47.282;9.640;2023-04-06T00:52:57;4.50;99.90
18884;DHT22;9574;47.282;9.640;2023-04-06T00:55:27;4.50;99.90
18884;DHT22;9574;47.282;9.640;2023-04-06T00:57:58;4.30;99.90
18884;DHT22;9574;47.282;9.640;2023-04-06T01:00:28;4.10;99.90
18884;DHT22;9574;47.282;9.640;2023-04-06T01:02:56;4.00;99.90
18884;DHT22;9574;47.282;9.640;2023-04-06T01:05:23;3.90;99.90
18884;DHT22;9574;47.282;9.640;2023-04-06T01:07:51;3.60;99.90
18884;DHT22;9574;47.282;9.640;2023-04-06T01:10:27;3.40;99.90
18884;DHT22;9574;47.282;9.640;2023-04-06T01:12:54;3.10;99.90
18884;DHT22;9574;47.282;9.640;2023-04-06T01:15:22;3.00;99.90
18884;DHT22;9574;47.282;9.640;2023-04-06T01:17:52;3.10;99.90
18884;DHT22;9574;47.282;9.640;2023-04-06T01:20:20;3.00;99.90
18884;DHT22;9574;47.282;9.640;2023-04-06T01:22:48;3.10;99.90
18884;DHT22;9574;47.282;9.640;2023-04-06T01:25:16;3.10;99.90
18884;DHT22;9574;47.282;9.640;2023-04-06T01:27:44;3.10;99.90
18884;DHT22;9574;47.282;9.640;2023-04-06T01:30:14;3.10;99.90
18884;DHT22;9574;47.282;9.640;2023-04-06T01:32:42;2.80;99.90
18884;DHT22;9574;47.282;9.640;2023-04-06T01:35:11;2.80;99.90
18884;DHT22;9574;47.282;9.640;2023-04-06T01:37:38;2.70;99.90
18884;DHT22;9574;47.282;9.640;2023-04-06T01:40:09;2.70;99.90
18884;DHT22;9574;47.282;9.640;2023-04-06T01:42:38;2.60;99.90
18884;DHT22;9574;47.282;9.640;2023-04-06T01:45:06;2.60;99.90
18884;DHT22;9574;47.282;9.640;2023-04-06T01:47:36;2.60;99.90
18884;DHT22;9574;47.282;9.640;2023-04-06T01:50:04;2.60;99.90
18884;DHT22;9574;47.282;9.640;2023-04-06T01:52:33;2.60;99.90
18884;DHT22;9574;47.282;9.640;2023-04-06T01:55:00;2.70;99.90
18884;DHT22;9574;47.282;9.640;2023-04-06T01:57:29;2.70;99.90
18884;DHT22;9574;47.282;9.640;2023-04-06T01:59:58;2.90;99.90
18884;DHT22;9574;47.282;9.640;2023-04-06T02:02:25;3.00;99.90
18884;DHT22;9574;47.282;9.640;2023-04-06T02:04:53;2.90;99.90
18884;DHT22;9574;47.282;9.640;2023-04-06T02:07:21;3.00;99.90
18884;DHT22;9574;47.282;9.640;2023-04-06T02:09:53;3.10;99.90
18884;DHT22;9574;47.282;9.640;2023-04-06T02:12:33;3.30;99.90
18884;DHT22;9574;47.282;9.640;2023-04-06T02:15:01;3.40;99.90
18884;DHT22;9574;47.282;9.640;2023-04-06T02:17:29;3.40;99.90
18884;DHT22;9574;47.282;9.640;2023-04-06T02:19:56;3.40;99.90
18884;DHT22;9574;47.282;9.640;2023-04-06T02:22:24;3.60;99.90
18884;DHT22;9574;47.282;9.640;2023-04-06T02:24:54;3.50;99.90
18884;DHT22;9574;47.282;9.640;2023-04-06T02:27:21;3.40;99.90
18884;DHT22;9574;47.282;9.640;2023-04-06T02:29:52;3.20;99.90
18884;DHT22;9574;47.282;9.640;2023-04-06T02:32:21;3.10;99.90
18884;DHT22;9574;47.282;9.640;2023-04-06T02:34:50;3.00;99.90
18884;DHT22;9574;47.282;9.640;2023-04-06T02:37:17;3.00;99.90
18884;DHT22;9574;47.282;9.640;2023-04-06T02:39:46;3.00;99.90
18884;DHT22;9574;47.282;9.640;2023-04-06T02:42:19;3.10;99.90
18884;DHT22;9574;47.282;9.640;2023-04-06T02:44:46;3.00;99.90
18884;DHT22;9574;47.282;9.640;2023-04-06T02:47:18;3.00;99.90
18884;DHT22;9574;47.282;9.640;2023-04-06T02:49:45;3.00;99.90
18884;DHT22;9574;47.282;9.640;2023-04-06T02:52:14;3.00;99.90
18884;DHT22;9574;47.282;9.640;2023-04-06T02:54:48;3.10;99.90
18884;DHT22;9574;47.282;9.640;2023-04-06T02:57:17;3.10;99.90
18884;DHT22;9574;47.282;9.640;2023-04-06T02:59:44;3.10;99.90
18884;DHT22;9574;47.282;9.640;2023-04-06T03:02:14;3.10;99.90
18884;DHT22;9574;47.282;9.640;2023-04-06T03:04:44;3.10;99.90
18884;DHT22;9574;47.282;9.640;2023-04-06T03:07:12;3.10;99.90
18884;DHT22;9574;47.282;9.640;2023-04-06T03:09:40;3.10;99.90
18884;DHT22;9574;47.282;9.640;2023-04-06T03:12:09;3.10;99.90
18884;DHT22;9574;47.282;9.640;2023-04-06T03:14:37;3.10;99.90
18884;DHT22;9574;47.282;9.640;2023-04-06T03:17:05;3.40;99.90
18884;DHT22;9574;47.282;9.640;2023-04-06T03:19:34;3.50;99.90
18884;DHT22;9574;47.282;9.640;2023-04-06T03:22:05;3.50;99.90
18884;DHT22;9574;47.282;9.640;2023-04-06T03:24:32;3.30;99.90
18884;DHT22;9574;47.282;9.640;2023-04-06T03:27:02;3.30;99.90
18884;DHT22;9574;47.282;9.640;2023-04-06T03:29:32;3.30;99.90
18884;DHT22;9574;47.282;9.640;2023-04-06T03:31:59;3.10;99.90
18884;DHT22;9574;47.282;9.640;2023-04-06T03:34:26;3.20;99.90
18884;DHT22;9574;47.282;9.640;2023-04-06T03:36:56;3.20;99.90
18884;DHT22;9574;47.282;9.640;2023-04-06T03:39:29;2.90;99.90
18884;DHT22;9574;47.282;9.640;2023-04-06T03:41:57;2.60;99.90
18884;DHT22;9574;47.282;9.640;2023-04-06T03:44:34;2.60;99.90
18884;DHT22;9574;47.282;9.640;2023-04-06T03:47:03;2.90;99.90
18884;DHT22;9574;47.282;9.640;2023-04-06T03:49:31;2.70;99.90
18884;DHT22;9574;47.282;9.640;2023-04-06T03:51:58;2.40;99.90
18884;DHT22;9574;47.282;9.640;2023-04-06T03:54:35;2.30;99.90
18884;DHT22;9574;47.282;9.640;2023-04-06T03:57:03;2.10;99.90
18884;DHT22;9574;47.282;9.640;2023-04-06T03:59:33;2.00;99.90
18884;DHT22;9574;47.282;9.640;2023-04-06T04:02:01;1.90;99.90
18884;DHT22;9574;47.282;9.640;2023-04-06T04:04:30;1.90;99.90
18884;DHT22;9574;47.282;9.640;2023-04-06T04:06:59;2.40;99.90
18884;DHT22;9574;47.282;9.640;2023-04-06T04:09:28;2.80;99.90
18884;DHT22;9574;47.282;9.640;2023-04-06T04:11:59;2.70;99.90
18884;DHT22;9574;47.282;9.640;2023-04-06T04:14:27;2.50;99.90
18884;DHT22;9574;47.282;9.640;2023-04-06T04:16:55;2.20;99.90
18884;DHT22;9574;47.282;9.640;2023-04-06T04:19:22;2.00;99.90
18884;DHT22;9574;47.282;9.640;2023-04-06T04:21:51;2.00;99.90
18884;DHT22;9574;47.282;9.640;2023-04-06T04:24:23;1.90;99.90
18884;DHT22;9574;47.282;9.640;2023-04-06T04:26:52;1.90;99.90
18884;DHT22;9574;47.282;9.640;2023-04-06T04:29:30;1.80;99.90
18884;DHT22;9574;47.282;9.640;2023-04-06T04:31:58;1.70;99.90
18884;DHT22;9574;47.282;9.640;2023-04-06T04:34:28;1.60;99.90
18884;DHT22;9574;47.282;9.640;2023-04-06T04:36:57;1.70;99.90
18884;DHT22;9574;47.282;9.640;2023-04-06T04:39:24;2.30;99.90
18884;DHT22;9574;47.282;9.640;2023-04-06T04:41:53;2.70;99.90
18884;DHT22;9574;47.282;9.640;2023-04-06T04:44:23;2.60;99.90
18884;DHT22;9574;47.282;9.640;2023-04-06T04:46:50;2.30;99.90
18884;DHT22;9574;47.282;9.640;2023-04-06T04:49:20;2.10;99.90
18884;DHT22;9574;47.282;9.640;2023-04-06T04:51:52;2.30;99.90
18884;DHT22;9574;47.282;9.640;2023-04-06T04:54:19;2.70;99.90
18884;DHT22;9574;47.282;9.640;2023-04-06T04:56:48;2.70;99.90
18884;DHT22;9574;47.282;9.640;2023-04-06T04:59:18;2.40;99.90
18884;DHT22;9574;47.282;9.640;2023-04-06T05:01:48;2.20;99.90
18884;DHT22;9574;47.282;9.640;2023-04-06T05:04:18;2.10;99.90
18884;DHT22;9574;47.282;9.640;2023-04-06T05:06:49;1.90;99.90
18884;DHT22;9574;47.282;9.640;2023-04-06T05:09:22;1.80;99.90
18884;DHT22;9574;47.282;9.640;2023-04-06T05:11:49;1.70;99.90
18884;DHT22;9574;47.282;9.640;2023-04-06T05:14:18;1.70;99.90
18884;DHT22;9574;47.282;9.640;2023-04-06T05:16:48;1.70;99.90
18884;DHT22;9574;47.282;9.640;2023-04-06T05:19:16;1.50;99.90
18884;DHT22;9574;47.282;9.640;2023-04-06T05:21:44;1.50;99.90
18884;DHT22;9574;47.282;9.640;2023-04-06T05:24:11;1.60;99.90
18884;DHT22;9574;47.282;9.640;2023-04-06T05:26:39;1.60;99.90
18884;DHT22;9574;47.282;9.640;2023-04-06T05:29:07;1.60;99.90
18884;DHT22;9574;47.282;9.640;2023-04-06T05:31:34;1.60;99.90
18884;DHT22;9574;47.282;9.640;2023-04-06T05:34:06;1.70;99.90
18884;DHT22;9574;47.282;9.640;2023-04-06T05:36:35;1.70;99.90
18884;DHT22;9574;47.282;9.640;2023-04-06T05:39:04;1.70;99.90
18884;DHT22;9574;47.282;9.640;2023-04-06T05:41:31;1.70;99.90
18884;DHT22;9574;47.282;9.640;2023-04-06T05:43:59;1.90;99.90
18884;DHT22;9574;47.282;9.640;2023-04-06T05:46:27;1.90;99.90
18884;DHT22;9574;47.282;9.640;2023-04-06T05:48:55;2.00;99.90
18884;DHT22;9574;47.282;9.640;2023-04-06T05:51:23;1.90;99.90
18884;DHT22;9574;47.282;9.640;2023-04-06T05:53:52;1.90;99.90
18884;DHT22;9574;47.282;9.640;2023-04-06T05:56:19;1.90;99.90
18884;DHT22;9574;47.282;9.640;2023-04-06T05:58:49;2.00;99.90
18884;DHT22;9574;47.282;9.640;2023-04-06T06:01:17;2.20;99.90
18884;DHT22;9574;47.282;9.640;2023-04-06T06:03:46;2.30;99.90
18884;DHT22;9574;47.282;9.640;2023-04-06T06:06:15;2.40;99.90
18884;DHT22;9574;47.282;9.640;2023-04-06T06:08:44;2.60;99.90
18884;DHT22;9574;47.282;9.640;2023-04-06T06:11:13;2.70;99.90
18884;DHT22;9574;47.282;9.640;2023-04-06T06:13:41;2.80;99.90
18884;DHT22;9574;47.282;9.640;2023-04-06T06:16:09;3.40;99.90
18884;DHT22;9574;47.282;9.640;2023-04-06T06:18:37;3.90;99.90
18884;DHT22;9574;47.282;9.640;2023-04-06T06:21:07;4.00;99.90
18884;DHT22;9574;47.282;9.640;2023-04-06T06:23:35;4.10;99.90
18884;DHT22;9574;47.282;9.640;2023-04-06T06:26:04;4.20;99.90
18884;DHT22;9574;47.282;9.640;2023-04-06T06:28:34;4.50;99.90
18884;DHT22;9574;47.282;9.640;2023-04-06T06:31:05;4.80;99.90
18884;DHT22;9574;47.282;9.640;2023-04-06T06:33:33;4.50;99.90
18884;DHT22;9574;47.282;9.640;2023-04-06T06:36:02;4.20;99.90
18884;DHT22;9574;47.282;9.640;2023-04-06T06:38:30;4.00;99.90
18884;DHT22;9574;47.282;9.640;2023-04-06T06:40:58;4.00;99.90
18884;DHT22;9574;47.282;9.640;2023-04-06T06:43:27;4.00;99.90
18884;DHT22;9574;47.282;9.640;2023-04-06T06:45:55;4.00;99.90
18884;DHT22;9574;47.282;9.640;2023-04-06T06:48:22;4.00;99.90
18884;DHT22;9574;47.282;9.640;2023-04-06T06:50:51;4.10;99.90
18884;DHT22;9574;47.282;9.640;2023-04-06T06:53:18;4.30;99.90
18884;DHT22;9574;47.282;9.640;2023-04-06T06:55:45;4.40;99.90
18884;DHT22;9574;47.282;9.640;2023-04-06T06:58:17;4.60;99.90
18884;DHT22;9574;47.282;9.640;2023-04-06T07:00:48;4.70;99.90
18884;DHT22;9574;47.282;9.640;2023-04-06T07:03:16;4.90;99.90
18884;DHT22;9574;47.282;9.640;2023-04-06T07:05:46;5.00;99.90
18884;DHT22;9574;47.282;9.640;2023-04-06T07:08:19;5.20;99.90
18884;DHT22;9574;47.282;9.640;2023-04-06T07:10:46;5.20;99.90
18884;DHT22;9574;47.282;9.640;2023-04-06T07:13:13;5.20;99.90
18884;DHT22;9574;47.282;9.640;2023-04-06T07:15:46;5.40;99.90
18884;DHT22;9574;47.282;9.640;2023-04-06T07:18:15;5.60;99.90
18884;DHT22;9574;47.282;9.640;2023-04-06T07:20:43;5.70;99.90
18884;DHT22;9574;47.282;9.640;2023-04-06T07:23:10;6.10;99.90
18884;DHT22;9574;47.282;9.640;2023-04-06T07:25:38;6.30;99.90
18884;DHT22;9574;47.282;9.640;2023-04-06T07:28:07;6.50;99.90
18884;DHT22;9574;47.282;9.640;2023-04-06T07:30:38;6.90;99.90
18884;DHT22;9574;47.282;9.640;2023-04-06T07:33:15;7.10;99.90
18884;DHT22;9574;47.282;9.640;2023-04-06T07:35:46;7.30;99.90
18884;DHT22;9574;47.282;9.640;2023-04-06T07:38:16;7.20;99.90
18884;DHT22;9574;47.282;9.640;2023-04-06T07:40:44;7.20;99.90
18884;DHT22;9574;47.282;9.640;2023-04-06T07:43:12;7.30;99.90
18884;DHT22;9574;47.282;9.640;2023-04-06T07:45:41;7.70;99.90
18884;DHT22;9574;47.282;9.640;2023-04-06T07:48:11;8.00;99.90
18884;DHT22;9574;47.282;9.640;2023-04-06T07:50:39;8.20;99.90
18884;DHT22;9574;47.282;9.640;2023-04-06T07:53:09;8.20;99.90
18884;DHT22;9574;47.282;9.640;2023-04-06T07:55:37;8.50;99.90
18884;DHT22;9574;47.282;9.640;2023-04-06T07:58:05;8.40;99.90
18884;DHT22;9574;47.282;9.640;2023-04-06T08:00:34;8.30;99.90
18884;DHT22;9574;47.282;9.640;2023-04-06T08:03:01;8.60;99.90
18884;DHT22;9574;47.282;9.640;2023-04-06T08:05:30;9.00;99.90
18884;DHT22;9574;47.282;9.640;2023-04-06T08:07:59;9.10;99.90
18884;DHT22;9574;47.282;9.640;2023-04-06T08:10:27;9.20;99.90
18884;DHT22;9574;47.282;9.640;2023-04-06T08:13:02;9.40;99.90
18884;DHT22;9574;47.282;9.640;2023-04-06T08:15:29;9.30;99.90
18884;DHT22;9574;47.282;9.640;2023-04-06T08:18:05;9.40;99.90
18884;DHT22;9574;47.282;9.640;2023-04-06T08:20:34;9.80;99.90
18884;DHT22;9574;47.282;9.640;2023-04-06T08:23:01;10.00;99.90
18884;DHT22;9574;47.282;9.640;2023-04-06T08:25:44;10.10;99.90
18884;DHT22;9574;47.282;9.640;2023-04-06T08:28:12;10.10;99.90
18884;DHT22;9574;47.282;9.640;2023-04-06T08:30:42;10.30;99.90
18884;DHT22;9574;47.282;9.640;2023-04-06T08:33:14;10.30;99.90
18884;DHT22;9574;47.282;9.640;2023-04-06T08:35:45;10.50;99.90
18884;DHT22;9574;47.282;9.640;2023-04-06T08:38:14;11.00;99.90
18884;DHT22;9574;47.282;9.640;2023-04-06T08:40:42;11.30;99.90
18884;DHT22;9574;47.282;9.640;2023-04-06T08:43:14;11.50;99.90
18884;DHT22;9574;47.282;9.640;2023-04-06T08:45:43;11.40;99.90
18884;DHT22;9574;47.282;9.640;2023-04-06T08:48:12;11.20;99.90
18884;DHT22;9574;47.282;9.640;2023-04-06T08:50:39;11.30;99.90
18884;DHT22;9574;47.282;9.640;2023-04-06T08:53:11;11.60;99.30
18884;DHT22;9574;47.282;9.640;2023-04-06T08:55:39;11.90;99.10
18884;DHT22;9574;47.282;9.640;2023-04-06T08:58:09;11.90;98.70
18884;DHT22;9574;47.282;9.640;2023-04-06T09:00:41;12.20;99.00
18884;DHT22;9574;47.282;9.640;2023-04-06T09:03:08;12.40;99.60
18884;DHT22;9574;47.282;9.640;2023-04-06T09:05:44;12.60;98.10
18884;DHT22;9574;47.282;9.640;2023-04-06T09:08:19;12.90;97.30
18884;DHT22;9574;47.282;9.640;2023-04-06T09:10:46;13.00;99.10
18884;DHT22;9574;47.282;9.640;2023-04-06T09:13:15;13.10;98.30
18884;DHT22;9574;47.282;9.640;2023-04-06T09:15:43;13.30;98.50
18884;DHT22;9574;47.282;9.640;2023-04-06T09:18:13;13.50;96.20
18884;DHT22;9574;47.282;9.640;2023-04-06T09:20:41;13.70;94.70
18884;DHT22;9574;47.282;9.640;2023-04-06T09:23:19;13.80;95.30
18884;DHT22;9574;47.282;9.640;2023-04-06T09:25:47;13.70;96.10
18884;DHT22;9574;47.282;9.640;2023-04-06T09:28:15;13.40;96.60
18884;DHT22;9574;47.282;9.640;2023-04-06T09:30:48;13.50;95.30
18884;DHT22;9574;47.282;9.640;2023-04-06T09:33:22;13.60;96.80
18884;DHT22;9574;47.282;9.640;2023-04-06T09:35:50;13.80;99.10
18884;DHT22;9574;47.282;9.640;2023-04-06T09:38:19;13.70;99.10
18884;DHT22;9574;47.282;9.640;2023-04-06T09:40:50;13.80;96.10
18884;DHT22;9574;47.282;9.640;2023-04-06T09:43:24;14.20;95.30
18884;DHT22;9574;47.282;9.640;2023-04-06T09:46:00;14.50;95.00
18884;DHT22;9574;47.282;9.640;2023-04-06T09:48:37;14.70;92.40
18884;DHT22;9574;47.282;9.640;2023-04-06T09:51:06;14.80;93.00
18884;DHT22;9574;47.282;9.640;2023-04-06T09:53:42;15.00;93.30
18884;DHT22;9574;47.282;9.640;2023-04-06T09:56:12;15.30;93.20
18884;DHT22;9574;47.282;9.640;2023-04-06T09:58:45;15.40;93.20
18884;DHT22;9574;47.282;9.640;2023-04-06T10:01:15;15.40;92.00
18884;DHT22;9574;47.282;9.640;2023-04-06T10:03:55;15.30;90.40
18884;DHT22;9574;47.282;9.640;2023-04-06T10:06:27;15.50;90.60
18884;DHT22;9574;47.282;9.640;2023-04-06T10:08:58;15.20;90.10
18884;DHT22;9574;47.282;9.640;2023-04-06T10:11:31;15.30;90.70
18884;DHT22;9574;47.282;9.640;2023-04-06T10:13:59;15.30;87.60
18884;DHT22;9574;47.282;9.640;2023-04-06T10:16:26;15.30;88.80
18884;DHT22;9574;47.282;9.640;2023-04-06T10:19:00;15.40;91.80
18884;DHT22;9574;47.282;9.640;2023-04-06T10:21:29;15.50;87.10
18884;DHT22;9574;47.282;9.640;2023-04-06T10:24:00;15.70;90.40
18884;DHT22;9574;47.282;9.640;2023-04-06T10:26:32;15.80;87.40
18884;DHT22;9574;47.282;9.640;2023-04-06T10:29:03;15.70;88.00
18884;DHT22;9574;47.282;9.640;2023-04-06T10:31:32;15.60;84.60
18884;DHT22;9574;47.282;9.640;2023-04-06T10:34:09;15.50;88.10
18884;DHT22;9574;47.282;9.640;2023-04-06T10:36:37;15.40;90.60
18884;DHT22;9574;47.282;9.640;2023-04-06T10:39:07;15.70;86.70
18884;DHT22;9574;47.282;9.640;2023-04-06T10:41:36;16.00;90.50
18884;DHT22;9574;47.282;9.640;2023-04-06T10:44:03;16.00;87.20
18884;DHT22;9574;47.282;9.640;2023-04-06T10:46:33;16.10;86.70
18884;DHT22;9574;47.282;9.640;2023-04-06T10:49:11;16.10;91.80
18884;DHT22;9574;47.282;9.640;2023-04-06T10:51:39;15.80;90.70
18884;DHT22;9574;47.282;9.640;2023-04-06T10:54:13;15.90;88.30
18884;DHT22;9574;47.282;9.640;2023-04-06T10:56:40;16.20;89.70
18884;DHT22;9574;47.282;9.640;2023-04-06T10:59:11;16.00;86.20
18884;DHT22;9574;47.282;9.640;2023-04-06T11:01:40;16.10;89.40
18884;DHT22;9574;47.282;9.640;2023-04-06T11:04:15;16.30;87.50
18884;DHT22;9574;47.282;9.640;2023-04-06T11:06:46;16.40;86.60
18884;DHT22;9574;47.282;9.640;2023-04-06T11:09:25;16.40;88.50
18884;DHT22;9574;47.282;9.640;2023-04-06T11:12:07;16.30;87.80
18884;DHT22;9574;47.282;9.640;2023-04-06T11:14:34;16.10;89.30
18884;DHT22;9574;47.282;9.640;2023-04-06T11:17:03;16.50;90.40
18884;DHT22;9574;47.282;9.640;2023-04-06T11:19:31;16.60;86.60
18884;DHT22;9574;47.282;9.640;2023-04-06T11:22:07;16.20;88.10
18884;DHT22;9574;47.282;9.640;2023-04-06T11:24:37;16.00;90.90
18884;DHT22;9574;47.282;9.640;2023-04-06T11:27:06;15.90;90.90
18884;DHT22;9574;47.282;9.640;2023-04-06T11:29:35;16.10;89.70
18884;DHT22;9574;47.282;9.640;2023-04-06T11:32:04;16.50;90.50
18884;DHT22;9574;47.282;9.640;2023-04-06T11:34:36;16.60;87.40
18884;DHT22;9574;47.282;9.640;2023-04-06T11:37:07;16.60;91.60
18884;DHT22;9574;47.282;9.640;2023-04-06T11:39:43;16.80;91.30
18884;DHT22;9574;47.282;9.640;2023-04-06T11:42:20;16.50;90.80
18884;DHT22;9574;47.282;9.640;2023-04-06T11:44:51;16.10;86.70
18884;DHT22;9574;47.282;9.640;2023-04-06T11:47:18;16.40;87.00
18884;DHT22;9574;47.282;9.640;2023-04-06T11:49:47;16.60;88.90
18884;DHT22;9574;47.282;9.640;2023-04-06T11:52:18;16.70;87.20
18884;DHT22;9574;47.282;9.640;2023-04-06T11:54:48;17.00;83.70
18884;DHT22;9574;47.282;9.640;2023-04-06T11:57:17;17.20;83.70
18884;DHT22;9574;47.282;9.640;2023-04-06T11:59:45;17.50;83.00
18884;DHT22;9574;47.282;9.640;2023-04-06T12:02:13;17.80;84.40
18884;DHT22;9574;47.282;9.640;2023-04-06T12:04:43;17.40;85.30
18884;DHT22;9574;47.282;9.640;2023-04-06T12:07:11;17.20;90.00
18884;DHT22;9574;47.282;9.640;2023-04-06T12:09:41;17.40;89.50
18884;DHT22;9574;47.282;9.640;2023-04-06T12:12:11;17.70;85.50
18884;DHT22;9574;47.282;9.640;2023-04-06T12:14:42;17.70;82.50
18884;DHT22;9574;47.282;9.640;2023-04-06T12:17:10;17.80;79.80
18884;DHT22;9574;47.282;9.640;2023-04-06T12:19:38;17.80;81.10
18884;DHT22;9574;47.282;9.640;2023-04-06T12:22:06;17.70;82.00
18884;DHT22;9574;47.282;9.640;2023-04-06T12:24:33;17.60;82.70
18884;DHT22;9574;47.282;9.640;2023-04-06T12:27:04;17.10;86.50
18884;DHT22;9574;47.282;9.640;2023-04-06T12:29:35;16.60;87.60
18884;DHT22;9574;47.282;9.640;2023-04-06T12:32:03;16.30;85.30
18884;DHT22;9574;47.282;9.640;2023-04-06T12:34:31;16.70;85.00
18884;DHT22;9574;47.282;9.640;2023-04-06T12:37:01;17.20;86.40
18884;DHT22;9574;47.282;9.640;2023-04-06T12:39:29;17.40;85.40
18884;DHT22;9574;47.282;9.640;2023-04-06T12:41:57;17.50;85.10
18884;DHT22;9574;47.282;9.640;2023-04-06T12:44:31;17.80;79.90
18884;DHT22;9574;47.282;9.640;2023-04-06T12:47:05;17.80;87.40
18884;DHT22;9574;47.282;9.640;2023-04-06T12:49:34;17.90;83.40
18884;DHT22;9574;47.282;9.640;2023-04-06T12:52:06;18.20;82.00
18884;DHT22;9574;47.282;9.640;2023-04-06T12:54:35;18.30;80.90
18884;DHT22;9574;47.282;9.640;2023-04-06T12:57:05;18.20;84.70
18884;DHT22;9574;47.282;9.640;2023-04-06T12:59:34;18.10;79.90
18884;DHT22;9574;47.282;9.640;2023-04-06T13:02:04;17.80;81.50
18884;DHT22;9574;47.282;9.640;2023-04-06T13:04:34;16.90;80.00
18884;DHT22;9574;47.282;9.640;2023-04-06T13:07:10;16.10;83.50
18884;DHT22;9574;47.282;9.640;2023-04-06T13:09:38;15.70;80.40
18884;DHT22;9574;47.282;9.640;2023-04-06T13:12:06;15.70;81.30
18884;DHT22;9574;47.282;9.640;2023-04-06T13:14:35;16.30;80.70
18884;DHT22;9574;47.282;9.640;2023-04-06T13:17:04;16.60;81.60
18884;DHT22;9574;47.282;9.640;2023-04-06T13:19:31;16.50;82.30
18884;DHT22;9574;47.282;9.640;2023-04-06T13:22:00;16.60;81.40
18884;DHT22;9574;47.282;9.640;2023-04-06T13:24:28;16.70;83.70
18884;DHT22;9574;47.282;9.640;2023-04-06T13:26:57;16.20;86.10
18884;DHT22;9574;47.282;9.640;2023-04-06T13:29:24;16.70;87.90
18884;DHT22;9574;47.282;9.640;2023-04-06T13:31:52;16.80;85.50
18884;DHT22;9574;47.282;9.640;2023-04-06T13:34:22;17.10;83.30
18884;DHT22;9574;47.282;9.640;2023-04-06T13:36:52;16.70;81.80
18884;DHT22;9574;47.282;9.640;2023-04-06T13:39:20;16.90;82.70
18884;DHT22;9574;47.282;9.640;2023-04-06T13:41:47;16.90;86.20
18884;DHT22;9574;47.282;9.640;2023-04-06T13:44:14;16.90;80.90
18884;DHT22;9574;47.282;9.640;2023-04-06T13:46:43;17.40;83.20
18884;DHT22;9574;47.282;9.640;2023-04-06T13:49:10;17.90;80.70
18884;DHT22;9574;47.282;9.640;2023-04-06T13:51:42;18.00;83.00
18884;DHT22;9574;47.282;9.640;2023-04-06T13:54:13;17.80;80.70
18884;DHT22;9574;47.282;9.640;2023-04-06T13:56:40;17.10;84.90
18884;DHT22;9574;47.282;9.640;2023-04-06T13:59:22;16.70;81.10
18884;DHT22;9574;47.282;9.640;2023-04-06T14:01:50;16.70;82.50
18884;DHT22;9574;47.282;9.640;2023-04-06T14:04:17;16.80;82.20
18884;DHT22;9574;47.282;9.640;2023-04-06T14:06:47;17.50;83.40
18884;DHT22;9574;47.282;9.640;2023-04-06T14:09:15;17.80;83.50
18884;DHT22;9574;47.282;9.640;2023-04-06T14:11:45;18.20;78.60
18884;DHT22;9574;47.282;9.640;2023-04-06T14:14:12;18.20;83.10
18884;DHT22;9574;47.282;9.640;2023-04-06T14:16:43;17.80;78.00
18884;DHT22;9574;47.282;9.640;2023-04-06T14:19:11;17.30;77.60
18884;DHT22;9574;47.282;9.640;2023-04-06T14:21:43;16.90;81.10
18884;DHT22;9574;47.282;9.640;2023-04-06T14:24:13;16.80;80.70
18884;DHT22;9574;47.282;9.640;2023-04-06T14:26:42;17.00;82.00
18884;DHT22;9574;47.282;9.640;2023-04-06T14:29:10;17.20;80.80
18884;DHT22;9574;47.282;9.640;2023-04-06T14:31:41;17.40;80.90
18884;DHT22;9574;47.282;9.640;2023-04-06T14:34:08;17.10;78.70
18884;DHT22;9574;47.282;9.640;2023-04-06T14:36:35;17.40;77.10
18884;DHT22;9574;47.282;9.640;2023-04-06T14:39:12;17.00;81.10
18884;DHT22;9574;47.282;9.640;2023-04-06T14:41:48;16.60;84.70
18884;DHT22;9574;47.282;9.640;2023-04-06T14:44:15;17.10;80.90
18884;DHT22;9574;47.282;9.640;2023-04-06T14:46:42;17.50;80.20
18884;DHT22;9574;47.282;9.640;2023-04-06T14:49:15;17.90;80.70
18884;DHT22;9574;47.282;9.640;2023-04-06T14:51:43;17.70;81.10
18884;DHT22;9574;47.282;9.640;2023-04-06T14:54:13;17.20;80.00
18884;DHT22;9574;47.282;9.640;2023-04-06T14:56:40;16.90;79.90
18884;DHT22;9574;47.282;9.640;2023-04-06T14:59:09;16.60;81.10
18884;DHT22;9574;47.282;9.640;2023-04-06T15:01:37;16.80;82.40
18884;DHT22;9574;47.282;9.640;2023-04-06T15:04:04;17.30;76.00
18884;DHT22;9574;47.282;9.640;2023-04-06T15:06:32;17.30;82.00
18884;DHT22;9574;47.282;9.640;2023-04-06T15:09:00;16.80;81.80
18884;DHT22;9574;47.282;9.640;2023-04-06T15:11:37;16.20;82.40
18884;DHT22;9574;47.282;9.640;2023-04-06T15:14:16;16.50;80.20
18884;DHT22;9574;47.282;9.640;2023-04-06T15:16:44;16.50;80.20
18884;DHT22;9574;47.282;9.640;2023-04-06T15:19:12;16.60;77.90
18884;DHT22;9574;47.282;9.640;2023-04-06T15:21:40;16.70;78.00
18884;DHT22;9574;47.282;9.640;2023-04-06T15:24:09;16.80;80.20
18884;DHT22;9574;47.282;9.640;2023-04-06T15:26:38;17.00;79.40
18884;DHT22;9574;47.282;9.640;2023-04-06T15:29:06;17.00;83.80
18884;DHT22;9574;47.282;9.640;2023-04-06T15:31:36;17.00;81.70
18884;DHT22;9574;47.282;9.640;2023-04-06T15:34:04;17.00;86.00
18884;DHT22;9574;47.282;9.640;2023-04-06T15:36:34;16.50;82.60
18884;DHT22;9574;47.282;9.640;2023-04-06T15:39:04;16.50;83.60
18884;DHT22;9574;47.282;9.640;2023-04-06T15:41:34;16.40;82.00
18884;DHT22;9574;47.282;9.640;2023-04-06T15:44:05;16.30;79.30
18884;DHT22;9574;47.282;9.640;2023-04-06T15:46:38;16.40;81.10
18884;DHT22;9574;47.282;9.640;2023-04-06T15:49:08;16.60;78.10
18884;DHT22;9574;47.282;9.640;2023-04-06T15:51:35;16.10;81.60
18884;DHT22;9574;47.282;9.640;2023-04-06T15:54:05;15.80;78.60
18884;DHT22;9574;47.282;9.640;2023-04-06T15:59:10;15.20;79.60
18884;DHT22;9574;47.282;9.640;2023-04-06T16:01:40;15.10;81.00
18884;DHT22;9574;47.282;9.640;2023-04-06T16:04:10;15.50;80.00
18884;DHT22;9574;47.282;9.640;2023-04-06T16:06:39;15.80;81.10
18884;DHT22;9574;47.282;9.640;2023-04-06T16:09:06;16.00;80.10
18884;DHT22;9574;47.282;9.640;2023-04-06T16:11:37;15.70;78.10